createdAt,value
2016-10-19T00:00:49.636Z,0
2016-10-19T00:01:49.648Z,0
2016-10-19T00:02:49.655Z,0
2016-10-19T00:03:49.682Z,0
2016-10-19T00:04:49.661Z,0
2016-10-19T00:05:49.692Z,0
2016-10-19T00:06:49.697Z,0
2016-10-19T00:07:50.056Z,0
2016-10-19T00:08:49.749Z,0
2016-10-19T00:09:49.768Z,0
2016-10-19T00:10:49.780Z,0
2016-10-19T00:11:49.813Z,0
2016-10-19T00:12:49.827Z,0
2016-10-19T00:13:49.837Z,0
2016-10-19T00:14:49.877Z,0
2016-10-19T00:15:49.863Z,0
2016-10-19T00:16:49.905Z,0
2016-10-19T00:17:49.926Z,0
2016-10-19T00:18:49.926Z,0
2016-10-19T00:19:49.965Z,0
2016-10-19T00:20:49.969Z,0
2016-10-19T00:21:49.990Z,0
2016-10-19T00:22:50.003Z,0
2016-10-19T00:23:50.013Z,0
2016-10-19T00:24:50.049Z,0
2016-10-19T00:25:50.063Z,0
2016-10-19T00:26:50.094Z,0
2016-10-19T00:27:50.088Z,0
2016-10-19T00:28:50.125Z,0
2016-10-19T00:29:50.127Z,0
2016-10-19T00:30:50.166Z,0
2016-10-19T00:31:50.183Z,0
2016-10-19T00:32:50.192Z,0
2016-10-19T00:33:50.211Z,0
2016-10-19T00:34:50.254Z,0
2016-10-19T00:35:50.259Z,0
2016-10-19T00:36:50.295Z,0
2016-10-19T00:37:50.294Z,0
2016-10-19T00:38:50.294Z,0
2016-10-19T00:39:50.317Z,0
2016-10-19T00:40:50.333Z,0
2016-10-19T00:41:50.354Z,0
2016-10-19T00:42:50.443Z,0
2016-10-19T00:43:50.411Z,0
2016-10-19T00:44:50.415Z,0
2016-10-19T00:45:50.427Z,0
2016-10-19T00:46:50.470Z,0
2016-10-19T00:47:50.474Z,0
2016-10-19T00:48:50.493Z,0
2016-10-19T00:49:50.501Z,0
2016-10-19T00:50:50.536Z,0
2016-10-19T00:51:50.542Z,0
2016-10-19T00:52:50.599Z,0
2016-10-19T00:53:50.579Z,0
2016-10-19T00:54:50.610Z,0
2016-10-19T00:55:50.636Z,0
2016-10-19T00:56:50.650Z,0
2016-10-19T00:57:50.714Z,0
2016-10-19T00:58:53.745Z,0
2016-10-19T00:59:50.696Z,0
2016-10-19T01:00:50.706Z,0
2016-10-19T01:01:50.724Z,0
2016-10-19T01:02:50.743Z,0
2016-10-19T01:03:50.763Z,0
2016-10-19T01:04:50.786Z,0
2016-10-19T01:05:50.796Z,0
2016-10-19T01:06:50.825Z,0
2016-10-19T01:07:50.842Z,0
2016-10-19T01:08:50.863Z,0
2016-10-19T01:09:50.911Z,0
2016-10-19T01:10:50.894Z,0
2016-10-19T01:11:50.907Z,0
2016-10-19T01:12:51.449Z,0
2016-10-19T01:13:50.953Z,0
2016-10-19T01:14:50.969Z,0
2016-10-19T01:15:50.984Z,0
2016-10-19T01:16:51.007Z,0
2016-10-19T01:17:51.026Z,0
2016-10-19T01:18:51.043Z,0
2016-10-19T01:19:51.057Z,0
2016-10-19T01:20:51.082Z,0
2016-10-19T01:21:51.096Z,0
2016-10-19T01:22:51.555Z,0
2016-10-19T01:23:51.259Z,0
2016-10-19T01:24:51.417Z,0
2016-10-19T01:25:51.263Z,0
2016-10-19T01:26:51.281Z,0
2016-10-19T01:27:51.444Z,0
2016-10-19T01:28:51.459Z,0
2016-10-19T01:29:51.452Z,0
2016-10-19T01:30:51.466Z,0
2016-10-19T01:31:51.476Z,0
2016-10-19T01:32:51.488Z,0
2016-10-19T01:33:51.492Z,0
2016-10-19T01:34:51.529Z,0
2016-10-19T01:35:51.540Z,0
2016-10-19T01:36:51.550Z,0
2016-10-19T01:37:51.566Z,0
2016-10-19T01:38:51.566Z,0
2016-10-19T01:39:51.565Z,0
2016-10-19T01:40:51.574Z,0
2016-10-19T01:41:51.584Z,0
2016-10-19T01:42:51.592Z,0
2016-10-19T01:43:51.600Z,0
2016-10-19T01:44:51.667Z,0
2016-10-19T01:45:51.641Z,0
2016-10-19T01:46:51.582Z,0
2016-10-19T01:47:51.896Z,0
2016-10-19T01:48:51.921Z,0
2016-10-19T01:49:51.934Z,0
2016-10-19T01:50:51.643Z,0
2016-10-19T01:51:51.702Z,0
2016-10-19T01:52:51.677Z,0
2016-10-19T01:53:51.699Z,0
2016-10-19T01:54:51.714Z,0
2016-10-19T01:55:51.770Z,0
2016-10-19T01:56:51.782Z,0
2016-10-19T01:57:51.770Z,0
2016-10-19T01:58:51.789Z,0
2016-10-19T01:59:52.128Z,0
2016-10-19T02:00:51.822Z,0
2016-10-19T02:01:51.847Z,0
2016-10-19T02:02:51.898Z,0
2016-10-19T02:03:51.883Z,0
2016-10-19T02:04:51.900Z,0
2016-10-19T02:05:51.918Z,0
2016-10-19T02:06:51.983Z,0
2016-10-19T02:07:51.954Z,0
2016-10-19T02:08:51.973Z,0
2016-10-19T02:09:51.999Z,0
2016-10-19T02:10:52.011Z,0
2016-10-19T02:11:52.029Z,0
2016-10-19T02:12:52.099Z,0
2016-10-19T02:13:52.066Z,0
2016-10-19T02:14:52.084Z,0
2016-10-19T02:15:52.099Z,0
2016-10-19T02:16:52.124Z,0
2016-10-19T02:17:52.142Z,0
2016-10-19T02:18:52.159Z,0
2016-10-19T02:19:52.176Z,0
2016-10-19T02:20:52.196Z,0
2016-10-19T02:21:52.212Z,0
2016-10-19T02:22:52.234Z,0
2016-10-19T02:23:52.264Z,0
2016-10-19T02:24:52.278Z,0
2016-10-19T02:25:52.286Z,0
2016-10-19T02:26:52.306Z,0
2016-10-19T02:27:52.328Z,0
2016-10-19T02:28:52.351Z,0
2016-10-19T02:29:52.372Z,0
2016-10-19T02:30:52.382Z,0
2016-10-19T02:31:52.403Z,0
2016-10-19T02:32:52.423Z,0
2016-10-19T02:33:52.434Z,0
2016-10-19T02:34:52.467Z,0
2016-10-19T02:35:52.483Z,0
2016-10-19T02:36:52.534Z,0
2016-10-19T02:37:52.511Z,0
2016-10-19T02:38:52.561Z,0
2016-10-19T02:39:52.550Z,0
2016-10-19T02:40:52.573Z,0
2016-10-19T02:41:52.588Z,0
2016-10-19T02:42:52.605Z,0
2016-10-19T02:43:52.655Z,0
2016-10-19T02:44:52.678Z,0
2016-10-19T02:45:52.663Z,0
2016-10-19T02:46:52.681Z,0
2016-10-19T02:47:52.696Z,0
2016-10-19T02:48:52.723Z,0
2016-10-19T02:49:52.738Z,0
2016-10-19T02:50:53.068Z,0
2016-10-19T02:51:52.816Z,0
2016-10-19T02:52:52.801Z,0
2016-10-19T02:53:52.808Z,0
2016-10-19T02:54:52.827Z,0
2016-10-19T02:55:52.851Z,0
2016-10-19T02:56:52.867Z,0
2016-10-19T02:57:52.886Z,0
2016-10-19T02:58:52.938Z,0
2016-10-19T02:59:52.919Z,0
2016-10-19T03:00:52.943Z,0
2016-10-19T03:01:52.974Z,0
2016-10-19T03:02:52.986Z,0
2016-10-19T03:03:53.433Z,0
2016-10-19T03:04:53.019Z,0
2016-10-19T03:05:53.035Z,0
2016-10-19T03:06:53.099Z,0
2016-10-19T03:07:53.152Z,0
2016-10-19T03:08:53.093Z,0
2016-10-19T03:09:53.227Z,0
2016-10-19T03:10:53.214Z,0
2016-10-19T03:11:53.227Z,0
2016-10-19T03:12:53.210Z,0
2016-10-19T03:13:53.180Z,0
2016-10-19T03:14:53.353Z,0
2016-10-19T03:15:53.221Z,0
2016-10-19T03:16:53.241Z,0
2016-10-19T03:17:53.260Z,0
2016-10-19T03:18:53.428Z,0
2016-10-19T03:19:53.442Z,0
2016-10-19T03:20:53.309Z,0
2016-10-19T03:21:53.332Z,0
2016-10-19T03:22:53.350Z,0
2016-10-19T03:23:53.367Z,0
2016-10-19T03:24:53.485Z,0
2016-10-19T03:25:53.718Z,0
2016-10-19T03:26:53.504Z,0
2016-10-19T03:27:53.503Z,0
2016-10-19T03:28:53.907Z,0
2016-10-19T03:29:53.521Z,0
2016-10-19T03:30:53.500Z,0
2016-10-19T03:31:53.521Z,0
2016-10-19T03:32:53.541Z,0
2016-10-19T03:33:53.566Z,0
2016-10-19T03:34:53.571Z,0
2016-10-19T03:35:53.594Z,0
2016-10-19T03:36:53.612Z,0
2016-10-19T03:37:53.635Z,0
2016-10-19T03:38:53.690Z,0
2016-10-19T03:39:53.980Z,0
2016-10-19T03:40:53.684Z,0
2016-10-19T03:41:53.706Z,0
2016-10-19T03:42:54.036Z,0
2016-10-19T03:43:53.763Z,0
2016-10-19T03:44:53.758Z,0
2016-10-19T03:45:53.774Z,0
2016-10-19T03:46:53.793Z,0
2016-10-19T03:47:53.810Z,0
2016-10-19T03:48:53.834Z,0
2016-10-19T03:49:53.853Z,0
2016-10-19T03:50:53.876Z,0
2016-10-19T03:51:53.901Z,0
2016-10-19T03:52:53.899Z,0
2016-10-19T03:53:53.925Z,0
2016-10-19T03:54:53.947Z,0
2016-10-19T03:55:53.961Z,0
2016-10-19T03:56:53.979Z,0
2016-10-19T03:57:53.997Z,0
2016-10-19T03:58:54.028Z,0
2016-10-19T03:59:54.549Z,0
2016-10-19T04:00:54.198Z,0
2016-10-19T04:01:54.334Z,0
2016-10-19T04:02:54.433Z,0
2016-10-19T04:03:54.264Z,0
2016-10-19T04:04:54.342Z,0
2016-10-19T04:05:54.409Z,0
2016-10-19T04:06:54.170Z,0
2016-10-19T04:07:54.184Z,0
2016-10-19T04:08:54.213Z,0
2016-10-19T04:09:54.217Z,0
2016-10-19T04:10:54.241Z,0
2016-10-19T04:11:54.261Z,0
2016-10-19T04:12:54.280Z,0
2016-10-19T04:13:54.299Z,0
2016-10-19T04:14:54.314Z,0
2016-10-19T04:15:54.335Z,0
2016-10-19T04:16:54.357Z,0
2016-10-19T04:17:54.375Z,0
2016-10-19T04:18:54.389Z,0
2016-10-19T04:19:54.447Z,0
2016-10-19T04:20:54.425Z,0
2016-10-19T04:21:54.559Z,0
2016-10-19T04:22:54.663Z,0
2016-10-19T04:23:54.596Z,0
2016-10-19T04:24:54.713Z,0
2016-10-19T04:25:54.725Z,0
2016-10-19T04:26:54.717Z,0
2016-10-19T04:27:54.767Z,0
2016-10-19T04:28:54.774Z,0
2016-10-19T04:29:54.887Z,0
2016-10-19T04:30:54.784Z,0
2016-10-19T04:31:54.792Z,0
2016-10-19T04:32:54.841Z,0
2016-10-19T04:33:54.813Z,0
2016-10-19T04:34:54.819Z,0
2016-10-19T04:35:54.823Z,0
2016-10-19T04:36:54.828Z,0
2016-10-19T04:37:54.907Z,0
2016-10-19T04:38:54.845Z,0
2016-10-19T04:39:54.914Z,0
2016-10-19T04:40:54.800Z,0
2016-10-19T04:41:54.814Z,0
2016-10-19T04:42:54.924Z,0
2016-10-19T04:43:54.848Z,0
2016-10-19T04:44:54.961Z,0
2016-10-19T04:45:54.922Z,0
2016-10-19T04:46:54.908Z,0
2016-10-19T04:47:54.920Z,0
2016-10-19T04:48:55.050Z,0
2016-10-19T04:49:55.069Z,0
2016-10-19T04:50:55.017Z,0
2016-10-19T04:51:55.000Z,0
2016-10-19T04:52:55.021Z,0
2016-10-19T04:53:55.031Z,0
2016-10-19T04:54:55.164Z,0
2016-10-19T04:55:55.390Z,0
2016-10-19T04:56:55.087Z,0
2016-10-19T04:57:55.299Z,0
2016-10-19T04:58:55.248Z,0
2016-10-19T04:59:55.291Z,0
2016-10-19T05:00:55.273Z,0
2016-10-19T05:01:55.431Z,0
2016-10-19T05:02:55.515Z,0
2016-10-19T05:03:55.332Z,0
2016-10-19T05:04:55.346Z,0
2016-10-19T05:05:55.252Z,0
2016-10-19T05:06:55.386Z,0
2016-10-19T05:07:55.316Z,0
2016-10-19T05:08:55.422Z,0
2016-10-19T05:09:55.469Z,0
2016-10-19T05:10:55.464Z,0
2016-10-19T05:11:55.365Z,0
2016-10-19T05:12:55.380Z,0
2016-10-19T05:13:55.402Z,0
2016-10-19T05:14:55.422Z,0
2016-10-19T05:15:55.452Z,0
2016-10-19T05:16:55.489Z,0
2016-10-19T05:17:55.467Z,0
2016-10-19T05:18:55.522Z,0
2016-10-19T05:19:55.507Z,0
2016-10-19T05:20:55.528Z,0
2016-10-19T05:21:55.557Z,0
2016-10-19T05:22:55.671Z,0
2016-10-19T05:23:55.691Z,0
2016-10-19T05:24:55.608Z,0
2016-10-19T05:25:55.651Z,0
2016-10-19T05:26:55.755Z,0
2016-10-19T05:27:55.653Z,0
2016-10-19T05:28:55.670Z,0
2016-10-19T05:29:55.696Z,0
2016-10-19T05:30:55.709Z,0
2016-10-19T05:31:55.722Z,0
2016-10-19T05:32:55.743Z,0
2016-10-19T05:33:55.766Z,0
2016-10-19T05:34:55.787Z,0
2016-10-19T05:35:55.801Z,0
2016-10-19T05:36:55.827Z,0
2016-10-19T05:37:55.937Z,0
2016-10-19T05:38:55.858Z,0
2016-10-19T05:39:55.922Z,0
2016-10-19T05:40:56.007Z,0
2016-10-19T05:41:56.097Z,0
2016-10-19T05:42:55.929Z,0
2016-10-19T05:43:56.001Z,0
2016-10-19T05:44:55.967Z,0
2016-10-19T05:45:55.982Z,0
2016-10-19T05:46:56.000Z,0
2016-10-19T05:47:56.021Z,0
2016-10-19T05:48:56.041Z,0
2016-10-19T05:49:56.068Z,0
2016-10-19T05:50:56.225Z,0
2016-10-19T05:51:56.091Z,0
2016-10-19T05:52:56.138Z,0
2016-10-19T05:53:56.262Z,0
2016-10-19T05:54:56.251Z,0
2016-10-19T05:55:56.264Z,0
2016-10-19T05:56:56.371Z,0
2016-10-19T05:57:56.287Z,0
2016-10-19T05:58:56.397Z,0
2016-10-19T05:59:56.385Z,0
2016-10-19T06:00:56.393Z,0
2016-10-19T06:01:56.404Z,0
2016-10-19T06:02:56.417Z,0
2016-10-19T06:03:56.409Z,0
2016-10-19T06:04:56.421Z,0
2016-10-19T06:05:56.430Z,0
2016-10-19T06:06:56.572Z,0
2016-10-19T06:07:56.579Z,0
2016-10-19T06:08:56.584Z,0
2016-10-19T06:09:56.494Z,0
2016-10-19T06:10:56.501Z,0
2016-10-19T06:11:56.553Z,0
2016-10-19T06:12:56.555Z,0
2016-10-19T06:13:56.560Z,0
2016-10-19T06:14:56.607Z,0
2016-10-19T06:15:56.608Z,0
2016-10-19T06:16:56.615Z,0
2016-10-19T06:17:56.608Z,0
2016-10-19T06:18:56.623Z,5
2016-10-19T06:19:56.627Z,5
2016-10-19T06:20:56.675Z,5
2016-10-19T06:21:56.957Z,5
2016-10-19T06:22:56.974Z,5
2016-10-19T06:23:56.672Z,5
2016-10-19T06:24:56.690Z,5
2016-10-19T06:25:56.707Z,5
2016-10-19T06:26:56.725Z,5
2016-10-19T06:27:56.748Z,5
2016-10-19T06:28:56.762Z,5
2016-10-19T06:29:56.791Z,10
2016-10-19T06:30:56.799Z,10
2016-10-19T06:31:57.132Z,10
2016-10-19T06:32:56.837Z,10
2016-10-19T06:33:57.036Z,10
2016-10-19T06:34:56.869Z,5
2016-10-19T06:35:56.895Z,5
2016-10-19T06:36:56.907Z,5
2016-10-19T06:37:56.930Z,5
2016-10-19T06:38:56.945Z,5
2016-10-19T06:39:56.967Z,5
2016-10-19T06:40:56.987Z,5
2016-10-19T06:41:57.001Z,5
2016-10-19T06:42:57.015Z,5
2016-10-19T06:43:57.035Z,5
2016-10-19T06:44:57.058Z,5
2016-10-19T06:45:57.072Z,5
2016-10-19T06:46:57.121Z,5
2016-10-19T06:47:57.110Z,5
2016-10-19T06:48:57.124Z,5
2016-10-19T06:49:57.138Z,5
2016-10-19T06:50:57.160Z,5
2016-10-19T06:51:57.182Z,5
2016-10-19T06:52:57.516Z,5
2016-10-19T06:53:57.212Z,5
2016-10-19T06:54:57.232Z,5
2016-10-19T06:55:57.250Z,5
2016-10-19T06:56:57.581Z,5
2016-10-19T06:57:57.295Z,5
2016-10-19T06:58:57.309Z,5
2016-10-19T06:59:57.320Z,5
2016-10-19T07:00:57.340Z,5
2016-10-19T07:01:57.366Z,5
2016-10-19T07:02:57.384Z,5
2016-10-19T07:03:57.392Z,5
2016-10-19T07:04:57.411Z,5
2016-10-19T07:05:57.437Z,5
2016-10-19T07:06:57.454Z,5
2016-10-19T07:07:57.463Z,5
2016-10-19T07:08:57.486Z,5
2016-10-19T07:09:57.505Z,5
2016-10-19T07:10:57.519Z,5
2016-10-19T07:11:57.543Z,5
2016-10-19T07:12:57.566Z,10
2016-10-19T07:13:57.576Z,10
2016-10-19T07:14:57.613Z,10
2016-10-19T07:15:57.618Z,10
2016-10-19T07:16:57.635Z,10
2016-10-19T07:17:57.647Z,10
2016-10-19T07:18:57.667Z,10
2016-10-19T07:19:57.691Z,10
2016-10-19T07:20:57.830Z,10
2016-10-19T07:21:57.955Z,10
2016-10-19T07:22:57.735Z,10
2016-10-19T07:23:57.757Z,10
2016-10-19T07:24:57.777Z,10
2016-10-19T07:25:57.793Z,10
2016-10-19T07:26:57.813Z,10
2016-10-19T07:27:57.833Z,5
2016-10-19T07:28:57.843Z,5
2016-10-19T07:29:57.883Z,5
2016-10-19T07:30:57.893Z,5
2016-10-19T07:31:57.911Z,5
2016-10-19T07:32:58.045Z,5
2016-10-19T07:33:57.974Z,5
2016-10-19T07:34:58.043Z,5
2016-10-19T07:35:57.978Z,5
2016-10-19T07:36:57.996Z,5
2016-10-19T07:37:58.014Z,0
2016-10-19T07:38:58.172Z,0
2016-10-19T07:39:58.051Z,0
2016-10-19T07:40:58.060Z,0
2016-10-19T07:41:58.085Z,0
2016-10-19T07:42:58.147Z,0
2016-10-19T07:43:58.120Z,0
2016-10-19T07:44:58.197Z,0
2016-10-19T07:45:58.162Z,0
2016-10-19T07:46:58.173Z,0
2016-10-19T07:47:58.304Z,0
2016-10-19T07:48:58.211Z,0
2016-10-19T07:49:58.356Z,0
2016-10-19T07:50:58.251Z,0
2016-10-19T07:51:58.408Z,0
2016-10-19T07:52:58.383Z,0
2016-10-19T07:53:58.424Z,0
2016-10-19T07:54:58.523Z,5
2016-10-19T07:55:58.422Z,5
2016-10-19T07:56:58.350Z,5
2016-10-19T07:57:58.509Z,5
2016-10-19T07:58:58.387Z,5
2016-10-19T07:59:58.518Z,5
2016-10-19T08:00:58.435Z,5
2016-10-19T08:01:58.446Z,5
2016-10-19T08:02:58.605Z,5
2016-10-19T08:03:58.513Z,5
2016-10-19T08:04:58.588Z,5
2016-10-19T08:05:58.523Z,5
2016-10-19T08:06:58.569Z,5
2016-10-19T08:07:58.558Z,5
2016-10-19T08:08:58.647Z,5
2016-10-19T08:09:58.592Z,5
2016-10-19T08:10:58.721Z,5
2016-10-19T08:11:58.755Z,5
2016-10-19T08:12:58.665Z,5
2016-10-19T08:13:58.659Z,5
2016-10-19T08:14:58.807Z,5
2016-10-19T08:15:58.803Z,5
2016-10-19T08:16:58.777Z,5
2016-10-19T08:17:58.895Z,5
2016-10-19T08:18:58.831Z,5
2016-10-19T08:19:58.795Z,5
2016-10-19T08:20:58.787Z,5
2016-10-19T08:21:58.908Z,5
2016-10-19T08:22:58.820Z,10
2016-10-19T08:23:58.870Z,10
2016-10-19T08:24:58.857Z,10
2016-10-19T08:25:59.207Z,10
2016-10-19T08:26:58.954Z,15
2016-10-19T08:27:58.905Z,15
2016-10-19T08:28:58.925Z,15
2016-10-19T08:29:59.035Z,20
2016-10-19T08:30:59.175Z,20
2016-10-19T08:31:59.104Z,20
2016-10-19T08:32:59.101Z,20
2016-10-19T08:33:59.017Z,20
2016-10-19T08:34:59.028Z,15
2016-10-19T08:35:59.172Z,15
2016-10-19T08:36:59.066Z,15
2016-10-19T08:37:59.102Z,20
2016-10-19T08:38:59.217Z,20
2016-10-19T08:39:59.125Z,15
2016-10-19T08:40:59.148Z,20
2016-10-19T08:41:59.157Z,15
2016-10-19T08:42:59.173Z,15
2016-10-19T08:43:59.199Z,20
2016-10-19T08:44:59.215Z,20
2016-10-19T08:45:59.236Z,20
2016-10-19T08:46:59.248Z,20
2016-10-19T08:47:59.595Z,20
2016-10-19T08:48:59.325Z,20
2016-10-19T08:49:59.309Z,20
2016-10-19T08:50:59.325Z,20
2016-10-19T08:51:59.336Z,20
2016-10-19T08:52:59.357Z,15
2016-10-19T08:53:59.377Z,15
2016-10-19T08:54:59.542Z,15
2016-10-19T08:55:59.417Z,15
2016-10-19T08:56:59.551Z,15
2016-10-19T08:57:59.481Z,15
2016-10-19T08:58:59.466Z,15
2016-10-19T08:59:59.483Z,10
2016-10-19T09:00:59.550Z,10
2016-10-19T09:01:59.522Z,10
2016-10-19T09:02:59.560Z,10
2016-10-19T09:03:59.554Z,10
2016-10-19T09:04:59.610Z,10
2016-10-19T09:05:59.606Z,15
2016-10-19T09:06:59.614Z,15
2016-10-19T09:07:59.629Z,15
2016-10-19T09:08:59.654Z,15
2016-10-19T09:09:59.671Z,20
2016-10-19T09:10:59.687Z,20
2016-10-19T09:11:59.707Z,20
2016-10-19T09:12:59.716Z,20
2016-10-19T09:13:59.741Z,20
2016-10-19T09:14:59.873Z,20
2016-10-19T09:15:59.859Z,20
2016-10-19T09:16:59.912Z,15
2016-10-19T09:17:59.821Z,15
2016-10-19T09:18:59.829Z,10
2016-10-19T09:19:59.966Z,15
2016-10-19T09:20:59.978Z,20
2016-10-19T09:21:59.881Z,20
2016-10-19T09:23:00.013Z,15
2016-10-19T09:24:00.029Z,15
2016-10-19T09:24:59.937Z,10
2016-10-19T09:25:59.966Z,10
2016-10-19T09:27:00.407Z,10
2016-10-19T09:27:59.991Z,15
2016-10-19T09:29:00.195Z,15
2016-10-19T09:30:00.145Z,20
2016-10-19T09:31:00.044Z,25
2016-10-19T09:32:00.067Z,35
2016-10-19T09:33:00.086Z,35
2016-10-19T09:34:00.098Z,25
2016-10-19T09:35:00.124Z,25
2016-10-19T09:36:00.204Z,25
2016-10-19T09:37:00.603Z,25
2016-10-19T09:38:00.177Z,15
2016-10-19T09:39:00.195Z,10
2016-10-19T09:40:00.211Z,15
2016-10-19T09:41:00.237Z,10
2016-10-19T09:42:00.252Z,15
2016-10-19T09:43:00.278Z,15
2016-10-19T09:44:00.294Z,20
2016-10-19T09:45:00.350Z,25
2016-10-19T09:46:00.459Z,20
2016-10-19T09:47:00.457Z,20
2016-10-19T09:48:00.474Z,15
2016-10-19T09:49:00.381Z,10
2016-10-19T09:50:00.407Z,10
2016-10-19T09:51:00.417Z,5
2016-10-19T09:52:00.555Z,10
2016-10-19T09:53:00.526Z,5
2016-10-19T09:54:00.474Z,5
2016-10-19T09:55:00.572Z,5
2016-10-19T09:56:00.515Z,5
2016-10-19T09:57:00.642Z,5
2016-10-19T09:58:00.647Z,5
2016-10-19T09:59:00.878Z,0
2016-10-19T10:00:00.594Z,5
2016-10-19T10:01:00.602Z,5
2016-10-19T10:02:00.739Z,10
2016-10-19T10:03:00.651Z,10
2016-10-19T10:04:00.710Z,5
2016-10-19T10:05:00.672Z,5
2016-10-19T10:06:00.708Z,5
2016-10-19T10:07:00.719Z,0
2016-10-19T10:08:00.824Z,5
2016-10-19T10:09:00.753Z,10
2016-10-19T10:10:00.772Z,15
2016-10-19T10:11:00.808Z,15
2016-10-19T10:12:00.820Z,15
2016-10-19T10:13:00.915Z,20
2016-10-19T10:14:00.918Z,15
2016-10-19T10:15:01.006Z,15
2016-10-19T10:16:01.026Z,15
2016-10-19T10:17:00.902Z,20
2016-10-19T10:18:01.093Z,15
2016-10-19T10:19:01.013Z,10
2016-10-19T10:20:00.960Z,15
2016-10-19T10:21:01.027Z,15
2016-10-19T10:22:00.999Z,10
2016-10-19T10:23:01.059Z,15
2016-10-19T10:24:01.075Z,15
2016-10-19T10:25:01.132Z,15
2016-10-19T10:26:01.383Z,15
2016-10-19T10:27:01.099Z,10
2016-10-19T10:28:01.310Z,10
2016-10-19T10:29:01.447Z,10
2016-10-19T10:30:01.178Z,15
2016-10-19T10:31:01.247Z,15
2016-10-19T10:32:01.294Z,20
2016-10-19T10:33:01.309Z,15
2016-10-19T10:34:01.241Z,15
2016-10-19T10:35:01.251Z,25
2016-10-19T10:36:01.261Z,25
2016-10-19T10:37:01.396Z,35
2016-10-19T10:38:01.334Z,40
2016-10-19T10:39:01.308Z,40
2016-10-19T10:40:01.327Z,25
2016-10-19T10:41:01.357Z,20
2016-10-19T10:42:01.366Z,25
2016-10-19T10:43:01.392Z,25
2016-10-19T10:44:01.412Z,25
2016-10-19T10:45:01.422Z,30
2016-10-19T10:46:01.494Z,30
2016-10-19T10:47:01.504Z,35
2016-10-19T10:48:01.486Z,35
2016-10-19T10:49:01.583Z,35
2016-10-19T10:50:01.517Z,30
2016-10-19T10:51:01.536Z,25
2016-10-19T10:52:01.554Z,25
2016-10-19T10:53:01.577Z,25
2016-10-19T10:54:01.605Z,25
2016-10-19T10:55:01.617Z,25
2016-10-19T10:56:01.636Z,30
2016-10-19T10:57:01.644Z,30
2016-10-19T10:58:01.674Z,30
2016-10-19T10:59:01.688Z,25
2016-10-19T11:00:01.827Z,25
2016-10-19T11:01:01.846Z,25
2016-10-19T11:02:01.983Z,25
2016-10-19T11:03:01.886Z,20
2016-10-19T11:04:01.894Z,20
2016-10-19T11:05:02.027Z,20
2016-10-19T11:06:02.040Z,20
2016-10-19T11:07:02.053Z,20
2016-10-19T11:08:02.063Z,25
2016-10-19T11:09:02.061Z,20
2016-10-19T11:10:02.026Z,20
2016-10-19T11:11:02.109Z,25
2016-10-19T11:12:02.123Z,25
2016-10-19T11:13:01.964Z,25
2016-10-19T11:14:02.015Z,20
2016-10-19T11:15:01.995Z,15
2016-10-19T11:16:02.014Z,20
2016-10-19T11:17:02.037Z,20
2016-10-19T11:18:02.057Z,20
2016-10-19T11:19:02.072Z,25
2016-10-19T11:20:02.089Z,25
2016-10-19T11:21:02.145Z,20
2016-10-19T11:22:02.139Z,20
2016-10-19T11:23:02.146Z,20
2016-10-19T11:24:02.487Z,20
2016-10-19T11:25:02.188Z,15
2016-10-19T11:26:02.213Z,10
2016-10-19T11:27:02.227Z,10
2016-10-19T11:28:02.241Z,10
2016-10-19T11:29:02.265Z,10
2016-10-19T11:30:02.327Z,10
2016-10-19T11:31:02.305Z,10
2016-10-19T11:32:02.357Z,10
2016-10-19T11:33:02.351Z,10
2016-10-19T11:34:02.393Z,10
2016-10-19T11:35:02.384Z,10
2016-10-19T11:36:02.417Z,10
2016-10-19T11:37:02.459Z,10
2016-10-19T11:38:02.439Z,10
2016-10-19T11:39:02.460Z,10
2016-10-19T11:40:02.481Z,15
2016-10-19T11:41:02.505Z,10
2016-10-19T11:42:02.527Z,10
2016-10-19T11:43:02.578Z,10
2016-10-19T11:44:02.557Z,10
2016-10-19T11:45:02.613Z,10
2016-10-19T11:46:02.639Z,10
2016-10-19T11:47:02.934Z,10
2016-10-19T11:48:02.639Z,10
2016-10-19T11:49:03.086Z,10
2016-10-19T11:50:02.788Z,10
2016-10-19T11:51:02.787Z,10
2016-10-19T11:52:02.812Z,10
2016-10-19T11:53:02.832Z,10
2016-10-19T11:54:03.004Z,10
2016-10-19T11:55:02.989Z,10
2016-10-19T11:56:03.010Z,10
2016-10-19T11:57:03.052Z,10
2016-10-19T11:58:03.018Z,10
2016-10-19T11:59:03.057Z,10
2016-10-19T12:00:03.073Z,10
2016-10-19T12:01:03.079Z,10
2016-10-19T12:02:03.092Z,10
2016-10-19T12:03:03.085Z,10
2016-10-19T12:04:03.098Z,15
2016-10-19T12:05:03.440Z,10
2016-10-19T12:06:03.117Z,15
2016-10-19T12:07:03.117Z,15
2016-10-19T12:08:03.134Z,15
2016-10-19T12:09:03.130Z,15
2016-10-19T12:10:03.201Z,15
2016-10-19T12:11:03.197Z,15
2016-10-19T12:12:03.111Z,15
2016-10-19T12:13:03.137Z,15
2016-10-19T12:14:03.148Z,10
2016-10-19T12:15:03.166Z,10
2016-10-19T12:16:03.245Z,10
2016-10-19T12:17:03.236Z,10
2016-10-19T12:18:03.229Z,10
2016-10-19T12:19:03.285Z,10
2016-10-19T12:20:03.265Z,10
2016-10-19T12:21:03.294Z,15
2016-10-19T12:22:03.358Z,10
2016-10-19T12:23:03.330Z,10
2016-10-19T12:24:03.365Z,10
2016-10-19T12:25:03.372Z,10
2016-10-19T12:26:03.388Z,10
2016-10-19T12:27:03.410Z,10
2016-10-19T12:28:03.735Z,15
2016-10-19T12:29:03.444Z,15
2016-10-19T12:30:03.510Z,15
2016-10-19T12:31:03.486Z,20
2016-10-19T12:32:03.503Z,25
2016-10-19T12:33:03.525Z,20
2016-10-19T12:34:03.546Z,10
2016-10-19T12:35:03.575Z,20
2016-10-19T12:36:03.589Z,25
2016-10-19T12:37:03.605Z,20
2016-10-19T12:38:03.646Z,10
2016-10-19T12:39:03.651Z,10
2016-10-19T12:40:03.670Z,10
2016-10-19T12:41:03.697Z,10
2016-10-19T12:42:03.701Z,15
2016-10-19T12:43:03.735Z,15
2016-10-19T12:44:03.751Z,15
2016-10-19T12:45:03.767Z,20
2016-10-19T12:46:03.787Z,20
2016-10-19T12:47:03.816Z,20
2016-10-19T12:48:03.833Z,20
2016-10-19T12:49:03.855Z,25
2016-10-19T12:50:03.878Z,20
2016-10-19T12:51:03.894Z,15
2016-10-19T12:52:03.914Z,20
2016-10-19T12:53:03.938Z,25
2016-10-19T12:54:03.953Z,20
2016-10-19T12:55:03.974Z,15
2016-10-19T12:56:04.167Z,20
2016-10-19T12:57:04.015Z,30
2016-10-19T12:58:04.041Z,30
2016-10-19T12:59:04.059Z,25
2016-10-19T13:00:04.075Z,30
2016-10-19T13:01:04.105Z,25
2016-10-19T13:02:04.120Z,25
2016-10-19T13:03:04.140Z,25
2016-10-19T13:04:04.167Z,30
2016-10-19T13:05:04.179Z,25
2016-10-19T13:06:04.202Z,20
2016-10-19T13:07:04.246Z,25
2016-10-19T13:08:04.252Z,30
2016-10-19T13:09:04.275Z,15
2016-10-19T13:10:04.285Z,10
2016-10-19T13:11:04.301Z,10
2016-10-19T13:12:04.329Z,10
2016-10-19T13:13:04.348Z,10
2016-10-19T13:14:04.371Z,10
2016-10-19T13:15:04.453Z,10
2016-10-19T13:16:04.412Z,10
2016-10-19T13:17:04.426Z,15
2016-10-19T13:18:04.446Z,15
2016-10-19T13:19:04.511Z,20
2016-10-19T13:20:04.493Z,25
2016-10-19T13:21:04.830Z,25
2016-10-19T13:22:04.584Z,25
2016-10-19T13:23:04.562Z,20
2016-10-19T13:24:04.571Z,20
2016-10-19T13:25:04.593Z,25
2016-10-19T13:26:04.617Z,25
2016-10-19T13:27:04.644Z,25
2016-10-19T13:28:04.664Z,25
2016-10-19T13:29:04.675Z,25
2016-10-19T13:30:04.811Z,20
2016-10-19T13:31:04.836Z,20
2016-10-19T13:32:04.978Z,15
2016-10-19T13:33:04.965Z,10
2016-10-19T13:34:05.017Z,10
2016-10-19T13:35:05.020Z,10
2016-10-19T13:36:05.039Z,15
2016-10-19T13:37:05.069Z,15
2016-10-19T13:38:05.183Z,10
2016-10-19T13:39:05.053Z,5
2016-10-19T13:40:04.909Z,5
2016-10-19T13:41:04.928Z,5
2016-10-19T13:42:05.280Z,5
2016-10-19T13:43:05.017Z,5
2016-10-19T13:44:05.016Z,5
2016-10-19T13:45:05.009Z,5
2016-10-19T13:46:05.035Z,10
2016-10-19T13:47:05.365Z,15
2016-10-19T13:48:05.087Z,10
2016-10-19T13:49:05.089Z,15
2016-10-19T13:50:05.123Z,15
2016-10-19T13:51:05.139Z,10
2016-10-19T13:52:05.197Z,10
2016-10-19T13:53:05.890Z,10
2016-10-19T13:54:05.196Z,10
2016-10-19T13:55:05.218Z,5
2016-10-19T13:56:05.250Z,5
2016-10-19T13:57:05.257Z,10
2016-10-19T13:58:05.287Z,10
2016-10-19T13:59:05.307Z,5
2016-10-19T14:00:05.813Z,10
2016-10-19T14:01:05.686Z,5
2016-10-19T14:02:05.713Z,5
2016-10-19T14:03:05.384Z,5
2016-10-19T14:04:05.408Z,10
2016-10-19T14:05:05.426Z,10
2016-10-19T14:06:05.493Z,10
2016-10-19T14:07:05.629Z,10
2016-10-19T14:08:05.489Z,10
2016-10-19T14:09:05.643Z,10
2016-10-19T14:10:05.644Z,10
2016-10-19T14:11:05.788Z,10
2016-10-19T14:12:05.796Z,10
2016-10-19T14:13:05.795Z,10
2016-10-19T14:14:05.805Z,10
2016-10-19T14:15:05.818Z,10
2016-10-19T14:16:05.823Z,10
2016-10-19T14:17:05.836Z,10
2016-10-19T14:18:05.845Z,10
2016-10-19T14:19:05.888Z,10
2016-10-19T14:20:05.865Z,10
2016-10-19T14:21:05.867Z,10
2016-10-19T14:22:05.910Z,10
2016-10-19T14:23:06.568Z,10
2016-10-19T14:24:05.914Z,10
2016-10-19T14:25:05.928Z,10
2016-10-19T14:26:05.937Z,10
2016-10-19T14:27:05.984Z,10
2016-10-19T14:28:06.034Z,5
2016-10-19T14:29:05.998Z,5
2016-10-19T14:30:06.025Z,5
2016-10-19T14:31:06.034Z,5
2016-10-19T14:32:06.044Z,5
2016-10-19T14:33:06.045Z,5
2016-10-19T14:34:06.061Z,5
2016-10-19T14:35:06.049Z,0